Time;durP1;ratioP1;P1;durP2;ratioP2;P2;SDS_P1;SDS_P2;PMS_P1;PMS_P2;Temp;Humidity;BMP_temperature;BMP_pressure;BME280_temperature;BME280_humidity;BME280_pressure;Samples;Min_cycle;Max_cycle;Signal;HPM_P1;HPM_P2
2022/08/19 00:00:24;;;;;;;18.03;16.27;;;;;;;18.42;84.93;101267.31;4918847;29;20155;-76
2022/08/19 00:02:50;;;;;;;19.30;17.33;;;;;;;18.36;85.30;101273.31;4918615;29;20300;-76
2022/08/19 00:05:17;;;;;;;18.23;16.52;;;;;;;18.33;84.65;101268.25;4911548;29;20474;-76
2022/08/19 00:07:43;;;;;;;18.48;16.83;;;;;;;18.33;85.18;101262.88;4912499;29;20073;-75
2022/08/19 00:10:10;;;;;;;18.60;16.90;;;;;;;18.31;85.62;101268.41;4918614;29;20404;-77
2022/08/19 00:12:37;;;;;;;18.63;16.75;;;;;;;18.28;84.71;101262.50;4930968;29;20032;-77
2022/08/19 00:15:04;;;;;;;18.65;16.85;;;;;;;18.24;85.47;101266.53;4917664;29;20047;-76
2022/08/19 00:17:30;;;;;;;18.38;16.52;;;;;;;18.27;84.81;101264.38;4931224;29;20027;-76
2022/08/19 00:19:55;;;;;;;18.73;16.95;;;;;;;18.26;84.77;101261.81;4925401;29;20456;-76
2022/08/19 00:22:21;;;;;;;18.17;16.48;;;;;;;18.21;84.90;101258.78;4916209;29;20036;-77
2022/08/19 00:24:46;;;;;;;17.33;15.55;;;;;;;18.15;84.59;101252.16;4918050;29;20449;-76
2022/08/19 00:27:12;;;;;;;19.92;17.90;;;;;;;18.14;85.42;101265.78;4918256;29;20033;-76
2022/08/19 00:29:38;;;;;;;19.85;17.77;;;;;;;18.11;84.62;101273.13;4935287;29;20016;-76
2022/08/19 00:32:03;;;;;;;18.85;16.88;;;;;;;18.06;84.73;101266.56;4923760;29;20092;-76
2022/08/19 00:34:29;;;;;;;19.92;18.10;;;;;;;18.03;84.90;101256.94;4911222;29;20029;-76
2022/08/19 00:36:56;;;;;;;19.75;17.85;;;;;;;17.97;85.75;101262.97;4918400;29;20047;-77
2022/08/19 00:39:21;;;;;;;20.77;18.88;;;;;;;18.02;85.53;101275.91;4913528;29;20453;-76
2022/08/19 00:41:50;;;;;;;20.20;18.23;;;;;;;18.00;85.87;101269.88;4914011;29;20111;-77
2022/08/19 00:44:21;;;;;;;;;;;;;;;18.12;83.08;101276.69;4918779;29;20043;-76
2022/08/19 00:46:49;;;;;;;18.95;17.13;;;;;;;18.00;85.33;101275.25;4912831;29;19971;-76
2022/08/19 00:49:19;;;;;;;21.02;18.98;;;;;;;17.90;86.38;101269.94;4921129;29;20032;-76
2022/08/19 00:51:48;;;;;;;21.33;19.27;;;;;;;17.90;86.61;101267.25;4959887;23;20500;-52
2022/08/19 00:54:14;;;;;;;20.10;18.23;;;;;;;17.92;86.40;101273.34;4915976;29;20440;-54
2022/08/19 00:56:40;;;;;;;21.25;19.40;;;;;;;17.89;87.11;101276.34;4918612;29;20126;-54
2022/08/19 00:59:08;;;;;;;20.52;18.40;;;;;;;17.89;86.72;101274.50;4919091;29;20079;-52
2022/08/19 01:01:36;;;;;;;19.45;17.65;;;;;;;17.85;86.12;101266.84;4918862;29;20114;-53
2022/08/19 01:04:02;;;;;;;21.25;19.13;;;;;;;17.83;86.36;101264.31;4916257;29;20024;-53
2022/08/19 01:06:27;;;;;;;21.67;19.67;;;;;;;17.78;86.59;101263.94;4913494;29;20068;-52
2022/08/19 01:08:54;;;;;;;19.75;17.65;;;;;;;17.78;86.71;101271.16;4919017;29;20160;-54
2022/08/19 01:11:19;;;;;;;19.33;17.45;;;;;;;17.78;86.46;101266.63;4917640;29;20468;-54
2022/08/19 01:13:45;;;;;;;20.20;18.30;;;;;;;17.70;86.97;101272.78;4914932;29;20024;-52
2022/08/19 01:16:12;;;;;;;21.95;19.60;;;;;;;17.70;87.82;101271.94;4913848;29;20032;-54
2022/08/19 01:18:40;;;;;;;22.17;19.92;;;;;;;17.68;87.67;101276.63;4912724;29;20119;-52
2022/08/19 01:21:15;;;;;;;23.02;20.80;;;;;;;17.70;87.49;101270.09;4918782;29;20059;-53
2022/08/19 01:23:42;;;;;;;24.10;21.67;;;;;;;17.68;88.20;101268.56;4918216;29;20395;-53
2022/08/19 01:26:11;;;;;;;23.75;21.20;;;;;;;17.67;87.77;101267.72;4909472;29;20437;-52
2022/08/19 01:28:38;;;;;;;21.42;19.38;;;;;;;17.62;87.68;101261.97;4916255;29;20561;-52
2022/08/19 01:31:04;;;;;;;22.77;20.50;;;;;;;17.61;88.13;101267.50;4918555;29;20114;-52
2022/08/19 01:33:30;;;;;;;21.70;19.67;;;;;;;17.61;87.79;101267.50;4918273;29;20532;-53
2022/08/19 01:36:05;;;;;;;25.40;22.52;;;;;;;17.60;88.34;101269.31;4918570;29;20433;-51
2022/08/19 01:38:31;;;;;;;23.25;20.98;;;;;;;17.56;87.94;101271.47;4915882;29;20096;-51
2022/08/19 01:40:57;;;;;;;22.90;20.75;;;;;;;17.54;88.03;101270.78;4918294;29;20032;-54
2022/08/19 01:43:22;;;;;;;23.70;21.27;;;;;;;17.50;88.58;101269.41;4918046;29;20499;-52
2022/08/19 01:45:47;;;;;;;22.50;20.42;;;;;;;17.50;87.77;101268.53;4917276;29;20060;-53
2022/08/19 01:48:13;;;;;;;23.48;21.15;;;;;;;17.46;88.29;101268.00;4916217;29;20040;-53
2022/08/19 01:50:39;;;;;;;22.98;20.88;;;;;;;17.44;88.32;101264.63;4916572;29;20121;-52
2022/08/19 01:53:09;;;;;;;23.95;21.30;;;;;;;17.39;88.11;101262.41;4910731;29;20135;-52
2022/08/19 01:55:38;;;;;;;22.75;20.45;;;;;;;17.35;87.39;101261.03;4917876;29;20040;-54
2022/08/19 01:58:05;;;;;;;23.13;20.80;;;;;;;17.37;87.68;101267.09;4918161;29;20136;-54
2022/08/19 02:00:32;;;;;;;25.13;22.65;;;;;;;17.34;87.96;101264.69;4911527;29;20039;-53
2022/08/19 02:02:57;;;;;;;26.00;23.38;;;;;;;17.29;88.51;101267.00;4918007;29;20032;-54
2022/08/19 02:05:23;;;;;;;28.45;23.58;;;;;;;17.23;88.67;101270.28;4917483;29;20523;-54
2022/08/19 02:07:49;;;;;;;25.90;23.27;;;;;;;17.26;88.96;101266.47;4917833;29;20032;-55
2022/08/19 02:10:18;;;;;;;25.98;23.30;;;;;;;17.22;88.75;101268.59;4917927;29;20036;-51
2022/08/19 02:12:44;;;;;;;27.00;24.20;;;;;;;17.24;88.03;101271.97;4917626;29;20502;-54
2022/08/19 02:15:10;;;;;;;25.90;23.42;;;;;;;17.20;88.70;101284.88;4913048;29;20480;-53
2022/08/19 02:17:35;;;;;;;27.15;24.63;;;;;;;17.19;88.73;101293.91;4916881;29;20052;-50
2022/08/19 02:20:01;;;;;;;28.60;25.80;;;;;;;17.18;89.33;101286.81;4917585;29;20492;-49
2022/08/19 02:22:26;;;;;;;27.00;24.23;;;;;;;17.17;89.12;101289.69;4916808;29;20032;-49
2022/08/19 02:24:53;;;;;;;28.10;25.25;;;;;;;17.16;88.80;101294.19;4917534;29;20028;-49
2022/08/19 02:27:18;;;;;;;27.10;24.30;;;;;;;17.13;89.14;101297.16;4916907;29;20039;-49
2022/08/19 02:29:46;;;;;;;26.80;24.02;;;;;;;17.10;88.52;101300.19;4916972;29;20122;-49
2022/08/19 02:32:11;;;;;;;26.95;24.25;;;;;;;17.13;88.60;101291.81;4917284;29;20032;-49
2022/08/19 02:34:36;;;;;;;25.07;22.37;;;;;;;17.11;88.45;101293.81;4907879;29;20043;-49
2022/08/19 02:37:02;;;;;;;27.63;24.67;;;;;;;17.10;89.06;101307.38;4916312;29;20850;-51
2022/08/19 02:39:27;;;;;;;28.63;25.63;;;;;;;17.09;88.54;101298.47;4915798;29;20307;-48
2022/08/19 02:41:52;;;;;;;28.53;24.97;;;;;;;17.05;89.26;101304.28;4916648;29;20425;-49
2022/08/19 02:44:18;;;;;;;28.60;24.20;;;;;;;17.02;88.15;101294.72;4917322;29;20291;-51
2022/08/19 02:46:45;;;;;;;27.45;24.70;;;;;;;17.03;88.86;101291.00;4916913;29;20024;-51
2022/08/19 02:49:11;;;;;;;27.08;24.30;;;;;;;17.02;89.21;101298.22;4916633;29;20110;-49
2022/08/19 02:51:40;;;;;;;28.65;25.75;;;;;;;17.00;90.04;101304.72;4916843;29;20199;-48
2022/08/19 02:54:07;;;;;;;31.48;26.70;;;;;;;16.99;89.28;101313.78;4916974;29;20115;-51
2022/08/19 02:56:35;;;;;;;28.42;25.42;;;;;;;16.98;89.43;101304.88;4916045;29;20020;-50
2022/08/19 02:59:00;;;;;;;28.38;25.42;;;;;;;17.00;89.64;101308.28;4928258;29;20468;-49
2022/08/19 03:01:31;;;;;;;29.93;26.90;;;;;;;16.97;89.63;101302.34;4917548;29;20028;-50
2022/08/19 03:03:59;;;;;;;31.05;27.90;;;;;;;16.97;90.59;101310.38;4916563;29;20382;-49
2022/08/19 03:06:25;;;;;;;31.77;28.50;;;;;;;16.95;90.52;101301.66;4916251;29;20020;-50
2022/08/19 03:08:51;;;;;;;29.83;26.63;;;;;;;16.94;89.71;101303.50;4916253;29;20028;-49
2022/08/19 03:11:17;;;;;;;30.83;27.63;;;;;;;16.92;89.61;101296.56;4915824;29;20361;-53
2022/08/19 03:13:43;;;;;;;32.65;29.27;;;;;;;16.93;90.20;101295.59;4916769;29;20103;-49
2022/08/19 03:16:09;;;;;;;31.38;27.98;;;;;;;16.92;89.86;101308.16;4916337;29;20484;-52
2022/08/19 03:18:34;;;;;;;30.63;27.63;;;;;;;16.88;89.81;101304.06;4916338;29;20063;-52
2022/08/19 03:21:00;;;;;;;32.50;29.25;;;;;;;16.89;90.01;101313.00;4911025;29;20052;-52
2022/08/19 03:23:25;;;;;;;31.58;28.45;;;;;;;16.90;89.79;101311.97;4910305;29;20032;-49
2022/08/19 03:25:53;;;;;;;33.70;30.25;;;;;;;16.85;91.02;101301.69;4916337;29;20024;-51
2022/08/19 03:28:19;;;;;;;33.28;30.10;;;;;;;16.88;90.55;101297.88;4916632;29;20054;-50
2022/08/19 03:30:59;;;;;;;34.75;31.35;;;;;;;16.83;90.46;101300.97;4906649;29;20119;-52
2022/08/19 03:33:25;;;;;;;35.75;32.05;;;;;;;16.82;90.55;101300.13;4916115;29;20433;-50
2022/08/19 03:36:13;;;;;;;34.88;31.17;;;;;;;16.85;90.22;101299.00;4916149;29;20028;-50
2022/08/19 03:38:44;;;;;;;33.45;30.10;;;;;;;16.82;90.40;101307.34;4916591;29;20071;-52
2022/08/19 03:41:13;;;;;;;34.13;30.70;;;;;;;16.83;90.16;101304.47;4916157;29;20111;-53
2022/08/19 03:43:39;;;;;;;34.95;31.45;;;;;;;16.80;90.21;101296.75;4916157;29;20119;-48
2022/08/19 03:46:11;;;;;;;35.88;32.13;;;;;;;16.77;90.41;101291.69;4916317;29;20036;-50
2022/08/19 03:48:38;;;;;;;35.10;31.17;;;;;;;16.79;90.11;101292.38;4915920;29;20484;-53
2022/08/19 03:51:04;;;;;;;36.13;32.53;;;;;;;16.75;90.48;101296.34;4910674;29;20062;-49
2022/08/19 03:53:30;;;;;;;37.92;33.92;;;;;;;16.74;91.01;101285.75;4916295;29;20346;-52
2022/08/19 03:55:57;;;;;;;35.35;31.65;;;;;;;16.75;90.83;101288.31;4916135;29;20125;-49
2022/08/19 03:58:24;;;;;;;35.92;32.42;;;;;;;16.75;90.70;101284.75;4912748;29;20397;-49
2022/08/19 04:00:49;;;;;;;36.88;33.17;;;;;;;16.71;90.59;101284.22;4916138;29;20052;-49
2022/08/19 04:03:15;;;;;;;38.17;34.28;;;;;;;16.70;90.73;101287.88;4915288;29;20128;-49
2022/08/19 04:05:40;;;;;;;35.95;32.22;;;;;;;16.70;90.54;101289.72;4916086;29;20437;-48
2022/08/19 04:08:05;;;;;;;39.33;35.05;;;;;;;16.65;90.79;101290.16;4912537;29;20035;-49
2022/08/19 04:10:37;;;;;;;36.77;33.03;;;;;;;16.65;89.65;101290.16;4916064;29;20039;-48
2022/08/19 04:13:05;;;;;;;36.45;32.85;;;;;;;16.61;90.18;101284.22;4915839;29;20284;-48
2022/08/19 04:15:33;;;;;;;36.83;33.05;;;;;;;16.64;90.35;101289.31;4915854;29;20424;-51
2022/08/19 04:17:59;;;;;;;38.20;33.92;;;;;;;16.58;90.96;101289.88;4913299;29;20036;-48
2022/08/19 04:20:24;;;;;;;39.70;35.45;;;;;;;16.62;90.64;101287.75;4915527;29;20047;-51
2022/08/19 04:22:49;;;;;;;39.90;35.83;;;;;;;16.60;90.74;101293.28;4916528;29;20084;-50
2022/08/19 04:25:15;;;;;;;39.80;35.57;;;;;;;16.58;90.86;101289.06;4933656;29;20308;-51
2022/08/19 04:27:46;;;;;;;40.65;35.47;;;;;;;16.57;90.95;101290.03;4917815;29;20291;-49
2022/08/19 04:30:12;;;;;;;39.55;35.22;;;;;;;16.55;90.68;101287.50;4918698;29;20035;-49
2022/08/19 04:32:38;;;;;;;40.38;36.05;;;;;;;16.55;90.92;101286.66;4918338;29;20485;-50
2022/08/19 04:35:04;;;;;;;42.10;36.88;;;;;;;16.55;90.66;101278.63;4919189;29;20111;-50
2022/08/19 04:37:32;;;;;;;41.17;36.67;;;;;;;16.50;90.81;101278.22;4913641;29;20063;-49
2022/08/19 04:42:41;;;;;;;41.15;36.63;;;;;;;16.45;91.09;101279.50;4919167;29;20412;-48
2022/08/19 04:45:10;;;;;;;41.30;36.80;;;;;;;16.41;91.08;101285.28;4919143;29;20024;-49
2022/08/19 04:47:40;;;;;;;41.42;37.22;;;;;;;16.40;90.99;101281.78;4914488;29;20067;-48
2022/08/19 04:50:08;;;;;;;39.60;35.30;;;;;;;16.43;91.08;101297.53;4918468;29;20039;-51
2022/08/19 04:52:34;;;;;;;40.60;36.38;;;;;;;16.40;90.63;101288.94;4917503;29;20056;-49
2022/08/19 04:54:59;;;;;;;40.60;35.60;;;;;;;16.38;90.29;101291.78;4915810;29;20445;-49
2022/08/19 04:57:26;;;;;;;43.42;37.00;;;;;;;16.36;90.60;101295.59;4919055;29;20033;-49
2022/08/19 04:59:56;;;;;;;41.35;35.03;;;;;;;16.34;90.61;101303.78;4918812;29;20483;-49
2022/08/19 05:02:25;;;;;;;40.70;36.40;;;;;;;16.35;91.09;101310.81;4918860;29;20119;-52
2022/08/19 05:04:56;;;;;;;40.65;36.22;;;;;;;16.37;91.36;101298.16;4918626;29;20441;-49
2022/08/19 05:07:21;;;;;;;41.88;37.20;;;;;;;16.38;90.99;101309.72;4918888;29;20067;-50
2022/08/19 05:09:46;;;;;;;41.53;37.13;;;;;;;16.36;91.20;101315.22;4912573;29;20071;-49
2022/08/19 05:12:12;;;;;;;42.13;37.43;;;;;;;16.38;90.71;101315.06;4918654;29;20299;-49
2022/08/19 05:14:37;;;;;;;41.10;36.63;;;;;;;16.36;90.82;101317.06;4907981;29;20648;-50
2022/08/19 05:17:02;;;;;;;42.00;37.33;;;;;;;16.33;91.42;101323.53;4918631;29;20032;-49
2022/08/19 05:24:56;;;;;;;45.88;40.60;;;;;;;16.37;91.11;101330.31;4918390;29;20163;-51
2022/08/19 05:27:21;;;;;;;53.60;43.37;;;;;;;16.37;92.21;101338.34;4918432;29;20543;-49
2022/08/19 05:29:46;;;;;;;54.38;43.20;;;;;;;16.40;92.49;101339.88;4918662;29;20284;-49
2022/08/19 05:32:12;;;;;;;50.67;41.20;;;;;;;16.43;92.06;101343.13;4917761;29;20032;-49
2022/08/19 05:34:38;;;;;;;52.15;42.95;;;;;;;16.45;92.21;101351.91;4917506;29;20288;-52
2022/08/19 05:37:04;;;;;;;52.97;43.83;;;;;;;16.45;92.51;101357.25;4918230;29;20036;-51
2022/08/19 05:39:32;;;;;;;54.35;43.78;;;;;;;16.46;92.19;101356.25;4911413;29;20032;-49
2022/08/19 05:41:59;;;;;;;53.03;44.10;;;;;;;16.44;93.29;101357.41;4917921;29;20028;-52
2022/08/19 05:44:32;;;;;;;56.83;43.25;;;;;;;16.50;92.89;101356.81;4918393;29;20032;-51
2022/08/19 05:46:59;;;;;;;52.38;44.28;;;;;;;16.56;92.28;101358.09;4917118;29;20035;-52
2022/08/19 05:49:26;;;;;;;54.20;43.40;;;;;;;16.61;92.08;101359.31;4918145;29;20032;-49
2022/08/19 05:51:52;;;;;;;53.65;43.95;;;;;;;16.62;92.06;101360.16;4914330;29;20048;-50
2022/08/19 05:54:18;;;;;;;55.83;45.60;;;;;;;16.65;92.62;101366.13;4911787;29;20044;-49
2022/08/19 05:56:47;;;;;;;53.83;44.30;;;;;;;16.70;92.28;101354.94;4917208;29;20040;-51
2022/08/19 05:59:15;;;;;;;55.45;44.22;;;;;;;16.73;91.89;101351.97;4917939;29;20032;-55
2022/08/19 06:01:42;;;;;;;51.75;44.17;;;;;;;16.74;91.96;101340.25;4916928;29;20031;-53
2022/08/19 06:04:08;;;;;;;55.42;46.42;;;;;;;16.74;92.34;101342.94;4917470;29;20028;-52
2022/08/19 06:06:35;;;;;;;56.15;44.78;;;;;;;16.74;92.01;101334.88;4915284;29;20031;-53
2022/08/19 06:09:03;;;;;;;53.03;43.97;;;;;;;16.80;91.75;101345.03;4919361;29;20071;-52
2022/08/19 06:11:34;;;;;;;55.03;43.65;;;;;;;16.84;92.58;101337.53;4907848;29;20067;-51
2022/08/19 06:14:07;;;;;;;54.67;44.10;;;;;;;16.83;92.28;101339.34;4916943;29;20040;-52
2022/08/19 06:16:34;;;;;;;58.28;45.58;;;;;;;16.90;92.13;101342.31;4915648;29;20111;-53
2022/08/19 06:19:01;;;;;;;57.05;44.58;;;;;;;16.93;92.28;101327.78;4914048;29;20428;-49
2022/08/19 06:21:28;;;;;;;53.80;44.30;;;;;;;16.96;92.38;101332.88;4908063;29;20510;-49
2022/08/19 06:23:57;;;;;;;52.65;42.22;;;;;;;17.04;91.57;101337.47;4906017;29;20378;-50
2022/08/19 06:26:24;;;;;;;60.27;43.17;;;;;;;17.08;92.38;101336.19;4909695;29;20037;-52
2022/08/19 06:28:49;;;;;;;56.35;43.42;;;;;;;17.09;92.23;101336.06;4905171;29;20040;-49
2022/08/19 06:31:24;;;;;;;50.80;40.85;;;;;;;17.12;91.50;101330.41;4898993;29;20056;-50
2022/08/19 06:33:49;;;;;;;52.35;41.42;;;;;;;17.16;92.46;101331.78;4913172;29;20038;-50
2022/08/19 06:36:31;;;;;;;58.30;42.80;;;;;;;17.24;92.06;101332.88;4915682;29;20200;-50
2022/08/19 06:39:06;;;;;;;52.67;41.38;;;;;;;17.24;91.73;101322.97;4897862;29;20088;-51
2022/08/19 06:41:36;;;;;;;53.53;42.05;;;;;;;17.32;92.24;101333.81;4898100;29;20041;-51
2022/08/19 06:44:02;;;;;;;55.90;40.95;;;;;;;17.38;92.51;101329.69;4898688;29;20044;-49
2022/08/19 06:46:28;;;;;;;54.40;39.95;;;;;;;17.48;92.79;101335.00;4908696;29;20044;-51
2022/08/19 06:48:54;;;;;;;52.63;41.55;;;;;;;17.54;92.38;101329.88;4903150;29;20083;-51
2022/08/19 06:51:21;;;;;;;48.08;40.15;;;;;;;17.62;92.80;101330.94;4909914;29;20044;-49
2022/08/19 06:53:48;;;;;;;49.85;38.08;;;;;;;17.69;92.30;101326.66;4911989;29;20119;-49
2022/08/19 06:56:16;;;;;;;51.88;40.97;;;;;;;17.83;93.04;101334.19;4906607;29;20032;-49
2022/08/19 06:58:41;;;;;;;51.80;37.20;;;;;;;17.92;91.31;101337.84;4907938;29;20417;-50
2022/08/19 07:01:07;;;;;;;50.55;37.30;;;;;;;18.00;92.03;101337.06;4904511;29;20047;-49
2022/08/19 07:03:35;;;;;;;51.72;37.90;;;;;;;18.15;92.12;101334.66;4905832;29;20481;-50
2022/08/19 07:06:06;;;;;;;48.58;37.88;;;;;;;18.36;90.46;101328.97;4902070;29;20492;-49
2022/08/19 07:08:32;;;;;;;43.58;35.08;;;;;;;18.49;89.93;101332.91;4903221;29;20033;-55
2022/08/19 07:10:57;;;;;;;47.75;35.00;;;;;;;18.60;88.77;101321.06;4903073;29;20441;-55
2022/08/19 07:13:23;;;;;;;46.92;35.30;;;;;;;18.85;89.46;101329.28;4909130;29;20108;-55
2022/08/19 07:15:50;;;;;;;45.72;34.38;;;;;;;19.00;89.36;101335.78;4907085;29;20028;-55
2022/08/19 07:18:17;;;;;;;43.70;33.72;;;;;;;19.22;87.75;101333.50;4914738;29;20484;-55
2022/08/19 07:20:42;;;;;;;46.28;32.00;;;;;;;19.36;87.11;101332.88;4915429;29;20088;-55
2022/08/19 07:23:09;;;;;;;38.60;31.70;;;;;;;19.58;85.95;101336.84;4916139;29;20032;-54
2022/08/19 07:25:36;;;;;;;42.83;31.52;;;;;;;19.81;85.74;101340.78;4915881;29;20039;-52
2022/08/19 07:28:01;;;;;;;38.65;30.23;;;;;;;19.95;84.58;101349.06;4916649;29;20424;-55
2022/08/19 07:30:27;;;;;;;41.10;31.10;;;;;;;20.07;83.66;101354.13;4915988;29;20039;-55
2022/08/19 07:32:52;;;;;;;43.03;30.98;;;;;;;20.03;82.81;101364.38;4915340;29;20065;-55
2022/08/19 07:35:19;;;;;;;42.38;32.42;;;;;;;20.07;82.68;101360.34;4916215;29;20020;-56
2022/08/19 07:37:44;;;;;;;44.22;33.53;;;;;;;20.15;82.18;101359.50;4912535;29;20127;-55
2022/08/19 07:40:11;;;;;;;37.33;32.53;;;;;;;20.24;82.35;101354.97;4914602;29;20115;-54
2022/08/19 07:42:37;;;;;;;40.08;34.17;;;;;;;20.24;82.11;101365.75;4915871;29;20024;-55
2022/08/19 07:45:04;;;;;;;41.80;34.92;;;;;;;20.22;80.90;101357.81;4915697;29;20104;-55
2022/08/19 07:47:29;;;;;;;41.75;35.58;;;;;;;20.27;81.15;101360.84;4915981;29;20544;-48
2022/08/19 07:49:55;;;;;;;43.58;35.28;;;;;;;20.27;80.71;101373.50;4915717;29;20156;-49
2022/08/19 07:52:20;;;;;;;46.83;38.70;;;;;;;20.22;80.23;101365.91;4916131;29;20048;-48
2022/08/19 07:54:45;;;;;;;44.47;38.00;;;;;;;20.30;80.56;101381.25;4915637;29;20047;-48
2022/08/19 07:57:11;;;;;;;47.17;38.40;;;;;;;20.24;80.79;101380.06;4915996;29;20302;-47
2022/08/19 07:59:36;;;;;;;47.95;39.33;;;;;;;20.25;80.56;101381.78;4919620;29;20048;-49
2022/08/19 08:02:02;;;;;;;48.80;39.20;;;;;;;20.26;80.66;101388.00;4907248;29;20036;-48
2022/08/19 08:09:56;;;;;;;49.47;42.38;;;;;;;20.30;79.52;101386.63;4910636;29;20436;-50
2022/08/19 08:12:28;;;;;;;46.88;40.83;;;;;;;20.27;79.85;101384.31;4917293;29;20111;-50
2022/08/19 08:14:56;;;;;;;46.38;39.38;;;;;;;20.28;79.60;101394.06;4916941;29;20040;-52
2022/08/19 08:17:25;;;;;;;46.75;39.90;;;;;;;20.22;79.78;101392.06;4913935;29;20029;-52
2022/08/19 08:19:51;;;;;;;50.67;37.47;;;;;;;20.22;79.38;101387.50;4922675;29;20028;-52
2022/08/19 08:25:09;;;;;;;42.15;37.47;;;;;;;20.31;80.29;101388.34;4916452;29;20408;-52
2022/08/19 08:27:39;;;;;;;40.90;35.47;;;;;;;20.36;79.85;101406.72;4915585;29;20503;-46
2022/08/19 08:30:09;;;;;;;38.35;33.47;;;;;;;20.39;80.03;101404.53;4914776;29;20036;-46
2022/08/19 08:32:35;;;;;;;37.00;33.00;;;;;;;20.46;79.36;101412.78;4915775;29;20115;-46
2022/08/19 08:35:00;;;;;;;38.45;33.25;;;;;;;20.56;79.30;101405.34;4915284;29;20051;-46
2022/08/19 08:37:25;;;;;;;35.45;31.38;;;;;;;20.60;78.64;101395.06;4915864;29;20484;-46
2022/08/19 08:39:50;;;;;;;38.53;31.33;;;;;;;20.77;77.91;101404.88;4914937;29;20039;-46
2022/08/19 08:42:26;;;;;;;36.37;29.37;;;;;;;20.89;78.16;101414.28;4915247;29;20296;-46
2022/08/19 08:45:00;;;;;;;34.78;29.13;;;;;;;20.96;77.31;101413.59;4914576;29;20292;-47
2022/08/19 08:47:30;;;;;;;37.50;29.63;;;;;;;20.91;76.37;101407.88;4915877;29;20032;-46
2022/08/19 08:50:18;;;;;;;36.88;29.77;;;;;;;20.97;77.69;101429.66;4908634;29;20348;-46
2022/08/19 08:52:51;;;;;;;32.50;29.00;;;;;;;20.99;77.56;101427.59;4915198;29;20060;-47
2022/08/19 08:55:20;;;;;;;39.03;32.33;;;;;;;20.91;76.91;101422.22;4914632;29;20032;-48
2022/08/19 08:57:53;;;;;;;34.03;30.38;;;;;;;20.96;77.74;101424.41;4914074;29;20508;-47
2022/08/19 09:00:23;;;;;;;38.83;30.65;;;;;;;20.96;76.48;101417.16;4912445;29;20044;-47
2022/08/19 09:02:49;;;;;;;35.88;31.40;;;;;;;20.96;76.55;101419.84;4914166;29;20107;-46
2022/08/19 09:05:14;;;;;;;35.58;30.83;;;;;;;20.99;76.79;101413.28;4908415;29;20589;-47
2022/08/19 09:07:58;;;;;;;35.70;30.13;;;;;;;21.09;76.93;101415.78;4913441;29;20090;-48
2022/08/19 09:10:37;;;;;;;41.10;32.30;;;;;;;21.13;77.08;101415.25;4915672;29;20110;-48
2022/08/19 09:13:22;;;;;;;42.13;33.10;;;;;;;21.25;76.82;101411.16;4917234;29;20115;-47
2022/08/19 09:16:05;;;;;;;41.20;33.47;;;;;;;21.26;76.21;101412.84;4913894;29;20043;-47
2022/08/19 09:19:01;;;;;;;38.38;33.40;;;;;;;21.34;76.26;101417.38;4910086;29;20036;-47
2022/08/19 09:21:27;;;;;;;38.30;33.80;;;;;;;21.25;75.03;101413.03;4896788;29;20040;-47
2022/08/19 09:23:53;;;;;;;41.00;33.22;;;;;;;21.37;75.46;101418.91;4911551;29;20502;-47
2022/08/19 09:26:21;;;;;;;37.50;32.75;;;;;;;21.25;74.80;101429.25;4911536;29;20068;-48
2022/08/19 09:28:50;;;;;;;36.60;31.38;;;;;;;21.14;74.88;101424.22;4912111;29;20088;-46
2022/08/19 09:31:17;;;;;;;;;;;;;;;21.41;75.88;101434.56;4918902;29;20031;-47
2022/08/19 09:33:45;;;;;;;37.13;30.75;;;;;;;21.30;75.23;101428.69;4913729;29;19947;-49
2022/08/19 09:36:13;;;;;;;39.17;32.37;;;;;;;21.33;75.33;101422.94;4914947;29;20378;-49
2022/08/19 09:38:42;;;;;;;39.92;32.42;;;;;;;21.40;74.57;101429.34;4916844;29;20268;-46
2022/08/19 09:41:13;;;;;;;38.47;32.45;;;;;;;21.39;74.36;101427.66;4917975;29;20452;-48
2022/08/19 09:43:41;;;;;;;39.17;32.58;;;;;;;21.45;74.37;101435.09;4918341;29;20059;-50
2022/08/19 09:46:09;;;;;;;39.45;31.92;;;;;;;21.43;74.21;101435.25;4908548;29;20028;-47
2022/08/19 09:48:38;;;;;;;40.78;31.73;;;;;;;21.46;74.09;101430.50;4916698;29;20016;-47
2022/08/19 09:51:15;;;;;;;36.13;29.83;;;;;;;21.54;74.38;101436.75;4916767;29;20060;-49
2022/08/19 09:53:41;;;;;;;36.47;30.30;;;;;;;21.52;74.55;101435.25;4917082;29;20115;-50
2022/08/19 09:56:06;;;;;;;35.67;29.52;;;;;;;21.57;74.33;101433.69;4912531;29;20126;-47
2022/08/19 09:58:32;;;;;;;36.58;30.15;;;;;;;21.62;73.45;101438.59;4916737;29;20047;-47
2022/08/19 10:01:01;;;;;;;34.20;30.63;;;;;;;21.61;74.14;101443.13;4915021;29;20056;-48
2022/08/19 10:03:28;;;;;;;37.30;30.93;;;;;;;21.53;74.50;101442.34;4912832;29;20090;-46
2022/08/19 10:05:54;;;;;;;38.00;31.48;;;;;;;21.54;73.06;101442.16;4917415;29;20067;-47
2022/08/19 10:08:27;;;;;;;38.05;31.02;;;;;;;21.53;73.94;101443.19;4917774;29;20064;-49
2022/08/19 10:10:53;;;;;;;37.17;30.08;;;;;;;21.57;73.81;101447.22;4917017;29;20040;-47
2022/08/19 10:13:24;;;;;;;36.00;30.15;;;;;;;21.61;73.89;101437.72;4917689;29;20043;-47
2022/08/19 10:15:51;;;;;;;37.53;30.42;;;;;;;21.68;73.74;101443.25;4917512;29;20031;-47
2022/08/19 10:18:17;;;;;;;38.55;30.48;;;;;;;21.72;73.05;101443.78;4917174;29;20380;-48
2022/08/19 10:20:45;;;;;;;39.15;29.42;;;;;;;21.83;74.03;101443.38;4917198;29;20040;-49
2022/08/19 10:23:12;;;;;;;38.83;29.65;;;;;;;21.87;72.75;101433.91;4916662;29;20032;-49
2022/08/19 10:25:38;;;;;;;37.50;29.20;;;;;;;21.94;72.68;101431.31;4917572;29;20421;-50
2022/08/19 10:28:05;;;;;;;35.17;28.83;;;;;;;21.98;73.16;101435.34;4917290;29;20107;-49
2022/08/19 10:30:31;;;;;;;32.95;29.00;;;;;;;22.09;72.60;101434.09;4915916;29;20059;-48
2022/08/19 10:32:56;;;;;;;34.50;27.52;;;;;;;22.10;72.82;101430.34;4915755;29;20782;-47
2022/08/19 10:35:21;;;;;;;35.73;27.97;;;;;;;22.20;72.16;101425.56;4917323;29;20114;-49
2022/08/19 10:37:47;;;;;;;35.90;28.33;;;;;;;22.25;71.33;101425.88;4913442;29;20308;-50
2022/08/19 10:40:12;;;;;;;36.35;27.73;;;;;;;22.32;70.31;101432.28;4912700;29;20304;-47
2022/08/19 10:42:38;;;;;;;33.58;26.90;;;;;;;22.42;69.77;101439.31;4903847;29;20499;-47
2022/08/19 10:45:05;;;;;;;30.25;26.40;;;;;;;22.46;70.43;101430.63;4904438;29;20477;-48
2022/08/19 10:47:31;;;;;;;31.13;26.40;;;;;;;22.50;70.75;101426.56;4906710;29;20488;-49
2022/08/19 10:52:43;;;;;;;36.30;27.75;;;;;;;22.62;68.79;101426.94;4907906;29;20075;-50
2022/08/19 10:57:52;;;;;;;30.73;24.98;;;;;;;22.77;68.73;101418.03;4915721;29;20074;-47
2022/08/19 11:00:19;;;;;;;36.80;26.67;;;;;;;22.82;67.83;101415.59;4913673;29;20076;-48
2022/08/19 11:02:45;;;;;;;31.52;26.15;;;;;;;22.85;68.17;101416.06;4912844;29;20126;-47
2022/08/19 11:05:10;;;;;;;31.75;26.80;;;;;;;22.77;68.61;101418.03;4909730;29;20045;-47
2022/08/19 11:07:38;;;;;;;37.53;27.70;;;;;;;22.79;69.36;101422.22;4900576;29;20040;-48
2022/08/19 11:10:04;;;;;;;36.95;31.30;;;;;;;22.85;68.53;101417.94;4910800;29;20032;-47
2022/08/19 11:12:29;;;;;;;38.60;32.90;;;;;;;23.00;68.66;101416.09;4904026;29;20096;-50
2022/08/19 11:14:54;;;;;;;45.43;35.97;;;;;;;23.01;67.35;101416.91;4897679;29;20423;-50
2022/08/19 11:17:19;;;;;;;39.47;34.17;;;;;;;23.02;67.26;101416.75;4913612;29;20288;-48
2022/08/19 11:19:48;;;;;;;36.80;32.83;;;;;;;23.13;67.96;101417.34;4905974;29;20029;-48
2022/08/19 11:22:13;;;;;;;37.17;33.17;;;;;;;23.15;65.84;101415.28;4902308;29;20107;-48
2022/08/19 11:24:38;;;;;;;33.70;29.70;;;;;;;23.22;66.13;101425.19;4902769;29;20032;-46
2022/08/19 11:27:08;;;;;;;35.97;27.97;;;;;;;23.27;66.89;101421.91;4911651;29;20075;-47
2022/08/19 11:29:35;;;;;;;30.40;27.08;;;;;;;23.46;64.25;101413.22;4910379;29;20765;-47
2022/08/19 11:32:05;;;;;;;35.80;29.35;;;;;;;23.55;64.97;101408.53;4902267;29;20085;-49